Time;durP1;ratioP1;P1;durP2;ratioP2;P2;SDS_P1;SDS_P2;PMS_P1;PMS_P2;Temp;Humidity;BMP_temperature;BMP_pressure;BME280_temperature;BME280_humidity;BME280_pressure;Samples;Min_cycle;Max_cycle;Signal;HPM_P1;HPM_P2
2022/08/21 00:01:05;;;;;;;0.00;0.00;;;17.10;77.10;;;;;;5023663;28;20046;-68
2022/08/21 00:03:32;;;;;;;0.00;0.00;;;17.10;77.00;;;;;;5026894;28;20388;-68
2022/08/21 00:05:57;;;;;;;0.00;0.00;;;17.10;77.20;;;;;;5010599;28;20144;-68
2022/08/21 00:08:23;;;;;;;0.00;0.00;;;17.10;77.20;;;;;;5009336;28;20157;-68
2022/08/21 00:10:50;;;;;;;0.00;0.00;;;17.10;77.20;;;;;;5007500;28;20611;-68
2022/08/21 00:13:17;;;;;;;0.00;0.00;;;17.10;77.70;;;;;;4993149;28;20050;-68
2022/08/21 00:15:43;;;;;;;0.00;0.00;;;17.10;78.00;;;;;;4993442;28;20042;-68
2022/08/21 00:18:10;;;;;;;0.00;0.00;;;17.10;78.00;;;;;;4993703;28;20042;-68
2022/08/21 00:20:37;;;;;;;0.00;0.00;;;17.10;78.20;;;;;;4993743;28;20046;-68
2022/08/21 00:23:03;;;;;;;0.00;0.00;;;17.10;78.10;;;;;;5005654;28;20103;-68
2022/08/21 00:25:29;;;;;;;0.00;0.00;;;17.10;77.80;;;;;;5013348;28;20046;-69
2022/08/21 00:27:55;;;;;;;0.00;0.00;;;17.00;78.00;;;;;;5012992;28;20046;-68
2022/08/21 00:30:24;;;;;;;0.00;0.00;;;17.00;78.30;;;;;;5011825;28;20125;-68
2022/08/21 00:32:51;;;;;;;0.00;0.00;;;17.10;78.20;;;;;;5012422;28;20045;-68
2022/08/21 00:35:24;;;;;;;0.00;0.00;;;17.00;78.30;;;;;;5028141;28;20049;-68
2022/08/21 00:37:49;;;;;;;0.00;0.00;;;17.00;78.50;;;;;;5013096;28;20473;-68
2022/08/21 00:40:21;;;;;;;0.00;0.00;;;17.00;78.80;;;;;;5025760;28;20049;-69
2022/08/21 00:42:47;;;;;;;0.00;0.00;;;17.10;78.90;;;;;;5030743;28;20503;-69
2022/08/21 00:45:13;;;;;;;0.00;0.00;;;17.00;78.50;;;;;;5015927;28;20038;-69
2022/08/21 00:47:38;;;;;;;0.00;0.00;;;17.00;78.90;;;;;;5007601;28;20466;-69
2022/08/21 00:50:08;;;;;;;0.00;0.00;;;17.00;79.10;;;;;;5016729;28;20057;-69
2022/08/21 00:52:37;;;;;;;0.00;0.00;;;17.00;79.20;;;;;;5013704;28;20049;-69
2022/08/21 00:55:07;;;;;;;0.00;0.00;;;17.00;79.00;;;;;;5013147;28;20184;-69
2022/08/21 00:57:38;;;;;;;0.00;0.00;;;17.00;79.20;;;;;;5025548;28;20049;-69
2022/08/21 01:00:07;;;;;;;0.00;0.00;;;16.90;79.00;;;;;;5031547;28;20037;-68
2022/08/21 01:02:33;;;;;;;0.00;0.00;;;16.90;79.10;;;;;;5023761;28;20088;-69
2022/08/21 01:04:59;;;;;;;0.00;0.00;;;16.90;79.00;;;;;;5012559;28;20073;-69
2022/08/21 01:07:25;;;;;;;0.00;0.00;;;16.80;78.90;;;;;;5017885;28;20053;-68
2022/08/21 01:09:51;;;;;;;0.00;0.00;;;16.80;79.20;;;;;;5029686;28;20049;-69
2022/08/21 01:12:17;;;;;;;0.00;0.00;;;16.80;79.20;;;;;;5029973;28;20041;-69
2022/08/21 01:14:44;;;;;;;0.00;0.00;;;16.80;78.90;;;;;;5030062;28;20045;-69
2022/08/21 01:17:14;;;;;;;0.00;0.00;;;16.80;78.70;;;;;;5019325;28;20046;-69
2022/08/21 01:19:39;;;;;;;0.00;0.00;;;16.70;79.10;;;;;;5012101;28;20042;-69
2022/08/21 01:22:05;;;;;;;0.00;0.00;;;16.70;79.30;;;;;;5026690;28;20457;-69
2022/08/21 01:24:32;;;;;;;0.00;0.00;;;16.60;79.20;;;;;;5025038;28;20038;-69
2022/08/21 01:26:59;;;;;;;0.00;0.00;;;16.60;79.00;;;;;;5012137;28;20488;-69
2022/08/21 01:29:37;;;;;;;0.00;0.00;;;16.60;79.20;;;;;;5011553;28;20049;-69
2022/08/21 01:32:07;;;;;;;0.00;0.00;;;16.60;79.20;;;;;;4994191;28;20049;-69
2022/08/21 01:34:35;;;;;;;0.00;0.00;;;16.60;79.20;;;;;;5018900;28;20512;-69
2022/08/21 01:37:01;;;;;;;0.00;0.00;;;16.60;79.20;;;;;;5010597;28;20117;-69
2022/08/21 01:39:26;;;;;;;0.00;0.00;;;16.50;79.20;;;;;;5011650;28;20475;-69
2022/08/21 01:41:52;;;;;;;0.00;0.00;;;16.60;79.00;;;;;;5012543;28;20454;-69
2022/08/21 01:44:21;;;;;;;0.00;0.00;;;16.50;79.00;;;;;;5011435;28;20407;-69
2022/08/21 01:46:47;;;;;;;0.00;0.00;;;16.50;79.10;;;;;;5020553;28;20037;-69
2022/08/21 01:49:13;;;;;;;0.00;0.00;;;16.50;79.10;;;;;;5013453;28;20072;-69
2022/08/21 01:51:39;;;;;;;0.20;0.20;;;16.50;79.20;;;;;;5026132;28;20498;-69
2022/08/21 01:54:04;;;;;;;0.00;0.00;;;16.50;78.90;;;;;;5012017;28;20038;-69
2022/08/21 01:56:38;;;;;;;0.00;0.00;;;16.50;79.30;;;;;;5016005;28;20037;-69
2022/08/21 01:59:03;;;;;;;0.00;0.00;;;16.50;79.90;;;;;;5030301;28;20064;-69
2022/08/21 02:01:29;;;;;;;0.00;0.00;;;16.50;79.70;;;;;;5019085;28;20046;-69
2022/08/21 02:03:55;;;;;;;0.00;0.00;;;16.50;80.10;;;;;;5012637;28;20124;-69
2022/08/21 02:06:20;;;;;;;0.00;0.00;;;16.50;80.10;;;;;;5024092;28;20067;-68
2022/08/21 02:08:46;;;;;;;0.00;0.00;;;16.50;80.00;;;;;;5011341;28;20034;-69
2022/08/21 02:11:12;;;;;;;0.00;0.00;;;16.50;80.20;;;;;;5027377;28;20069;-69
2022/08/21 02:13:38;;;;;;;0.00;0.00;;;16.50;80.20;;;;;;5028923;28;20065;-69
2022/08/21 02:16:03;;;;;;;0.00;0.00;;;16.50;80.50;;;;;;5017191;28;20087;-69
2022/08/21 02:18:29;;;;;;;0.00;0.00;;;16.50;80.30;;;;;;5026512;28;20041;-69
2022/08/21 02:20:55;;;;;;;0.00;0.00;;;16.50;80.20;;;;;;5018095;28;20057;-69
2022/08/21 02:23:20;;;;;;;0.00;0.00;;;16.50;79.90;;;;;;5012840;28;20498;-69
2022/08/21 02:25:46;;;;;;;0.00;0.00;;;16.50;79.80;;;;;;5013638;28;20041;-69
2022/08/21 02:28:13;;;;;;;0.00;0.00;;;16.50;80.00;;;;;;5016057;28;20038;-69
2022/08/21 02:30:44;;;;;;;0.00;0.00;;;16.50;80.10;;;;;;5026282;28;20045;-69
2022/08/21 02:33:10;;;;;;;0.00;0.00;;;16.50;80.40;;;;;;5023265;28;20052;-69
2022/08/21 02:35:37;;;;;;;0.00;0.00;;;16.50;80.60;;;;;;5016047;28;20502;-69
2022/08/21 02:38:11;;;;;;;0.00;0.00;;;16.50;80.50;;;;;;5029908;28;20518;-69
2022/08/21 02:40:39;;;;;;;0.00;0.00;;;16.50;80.30;;;;;;5029855;28;20051;-69
2022/08/21 02:43:06;;;;;;;0.00;0.00;;;16.50;80.30;;;;;;5026869;28;20103;-69
2022/08/21 02:45:32;;;;;;;0.00;0.00;;;16.50;80.20;;;;;;5028356;28;20128;-69
2022/08/21 02:48:02;;;;;;;0.00;0.00;;;16.50;80.00;;;;;;5024650;28;20041;-69
2022/08/21 02:50:32;;;;;;;1.75;0.85;;;16.50;79.80;;;;;;5029713;28;20042;-69
2022/08/21 02:52:57;;;;;;;0.00;0.00;;;16.40;79.90;;;;;;5028082;28;20065;-69
2022/08/21 02:55:26;;;;;;;0.00;0.00;;;16.40;79.90;;;;;;5016721;28;20046;-69
2022/08/21 02:57:52;;;;;;;0.00;0.00;;;16.40;79.80;;;;;;5011434;28;20071;-69
2022/08/21 03:00:18;;;;;;;0.00;0.00;;;16.40;80.20;;;;;;5011713;28;20049;-69
2022/08/21 03:02:46;;;;;;;0.00;0.00;;;16.40;80.20;;;;;;5028453;28;20033;-69
2022/08/21 03:05:13;;;;;;;0.00;0.00;;;16.40;80.20;;;;;;4990253;28;20046;-69
2022/08/21 03:07:39;;;;;;;0.00;0.00;;;16.40;80.00;;;;;;5025615;28;20076;-69
2022/08/21 03:10:06;;;;;;;0.00;0.00;;;16.40;80.00;;;;;;5017685;28;20124;-69
2022/08/21 03:12:31;;;;;;;0.00;0.00;;;16.40;80.40;;;;;;5011180;28;20450;-69
2022/08/21 03:14:58;;;;;;;0.00;0.00;;;16.40;80.40;;;;;;5010811;28;20045;-69
2022/08/21 03:17:24;;;;;;;0.00;0.00;;;16.40;80.60;;;;;;5010480;28;20034;-69
2022/08/21 03:19:50;;;;;;;0.00;0.00;;;16.40;80.60;;;;;;5025963;28;20049;-69
2022/08/21 03:22:15;;;;;;;0.00;0.00;;;16.40;80.60;;;;;;5029557;28;20060;-69
2022/08/21 03:24:41;;;;;;;0.00;0.00;;;16.40;80.20;;;;;;5029124;28;20049;-69
2022/08/21 03:27:07;;;;;;;0.00;0.00;;;16.30;80.10;;;;;;5023140;28;20676;-69
2022/08/21 03:29:32;;;;;;;0.00;0.00;;;16.30;80.20;;;;;;5021881;28;20083;-69
2022/08/21 03:31:58;;;;;;;0.00;0.00;;;16.30;80.50;;;;;;5027246;28;20103;-69
2022/08/21 03:34:23;;;;;;;0.00;0.00;;;16.30;80.50;;;;;;5028811;28;20049;-69
2022/08/21 03:36:49;;;;;;;0.00;0.00;;;16.30;80.40;;;;;;5029357;28;20544;-69
2022/08/21 03:39:16;;;;;;;0.00;0.00;;;16.30;80.70;;;;;;5028287;28;20084;-69
2022/08/21 03:41:42;;;;;;;0.00;0.00;;;16.30;80.60;;;;;;5024489;28;20045;-69
2022/08/21 03:44:07;;;;;;;0.00;0.00;;;16.30;80.70;;;;;;5006980;28;20038;-68
2022/08/21 03:46:33;;;;;;;0.00;0.00;;;16.30;80.60;;;;;;5015914;28;20372;-69
2022/08/21 03:49:00;;;;;;;0.00;0.00;;;16.40;80.60;;;;;;5012835;28;20120;-69
2022/08/21 03:51:25;;;;;;;0.00;0.00;;;16.30;80.40;;;;;;5012772;28;20053;-69
2022/08/21 03:53:51;;;;;;;0.00;0.00;;;16.30;80.40;;;;;;5028214;28;20096;-69
2022/08/21 03:56:17;;;;;;;0.40;0.40;;;16.30;80.50;;;;;;5013357;28;20073;-69
2022/08/21 03:58:43;;;;;;;0.00;0.00;;;16.30;80.50;;;;;;5010244;28;20428;-69
2022/08/21 04:01:09;;;;;;;0.00;0.00;;;16.30;80.60;;;;;;5013838;28;20041;-69
2022/08/21 04:03:36;;;;;;;0.00;0.00;;;16.30;80.90;;;;;;5028081;28;20555;-69
2022/08/21 04:06:02;;;;;;;0.00;0.00;;;16.20;80.50;;;;;;5030001;28;20103;-69
2022/08/21 04:08:28;;;;;;;0.00;0.00;;;16.20;80.70;;;;;;5030242;28;20065;-70
2022/08/21 04:10:56;;;;;;;0.00;0.00;;;16.20;80.80;;;;;;5012573;28;20077;-69
2022/08/21 04:13:22;;;;;;;0.00;0.00;;;16.30;81.10;;;;;;5013786;28;20490;-69
2022/08/21 04:15:49;;;;;;;0.00;0.00;;;16.30;81.30;;;;;;5013030;28;20049;-69
2022/08/21 04:18:14;;;;;;;0.00;0.00;;;16.20;81.30;;;;;;5012896;28;20551;-69
2022/08/21 04:20:43;;;;;;;0.00;0.00;;;16.30;81.10;;;;;;5013199;28;20141;-69
2022/08/21 04:23:08;;;;;;;0.00;0.00;;;16.30;81.20;;;;;;5019963;28;20038;-69
2022/08/21 04:25:34;;;;;;;0.00;0.00;;;16.30;81.30;;;;;;5021274;28;20048;-69
2022/08/21 04:27:59;;;;;;;0.00;0.00;;;16.20;81.30;;;;;;5012699;28;20046;-69
2022/08/21 04:30:26;;;;;;;0.00;0.00;;;16.30;81.30;;;;;;5012516;28;20045;-69
2022/08/21 04:32:51;;;;;;;0.00;0.00;;;16.30;81.40;;;;;;5012668;28;20033;-69
2022/08/21 04:35:21;;;;;;;0.00;0.00;;;16.30;81.70;;;;;;5012548;28;20053;-69
2022/08/21 04:37:48;;;;;;;0.00;0.00;;;16.30;81.80;;;;;;5013935;28;20410;-68
2022/08/21 04:40:16;;;;;;;0.00;0.00;;;16.30;81.70;;;;;;5026831;28;20097;-69
2022/08/21 04:42:45;;;;;;;0.00;0.00;;;16.30;81.70;;;;;;5014244;28;20502;-69
2022/08/21 04:45:21;;;;;;;0.00;0.00;;;16.30;81.80;;;;;;5020678;28;20050;-69
2022/08/21 04:47:51;;;;;;;0.00;0.00;;;16.30;81.90;;;;;;5012514;28;20092;-69
2022/08/21 04:50:18;;;;;;;0.00;0.00;;;16.30;81.90;;;;;;5031656;28;20041;-69
2022/08/21 04:52:45;;;;;;;0.00;0.00;;;16.30;81.80;;;;;;5029716;28;20038;-69
2022/08/21 04:55:11;;;;;;;0.00;0.00;;;16.30;81.80;;;;;;5030912;28;20045;-69
2022/08/21 04:57:37;;;;;;;0.00;0.00;;;16.30;82.00;;;;;;5013606;28;20092;-69
2022/08/21 05:00:05;;;;;;;4.38;0.52;;;16.30;81.90;;;;;;5031638;28;20081;-69
2022/08/21 05:02:32;;;;;;;0.00;0.00;;;16.30;81.90;;;;;;5011845;28;20081;-69
2022/08/21 05:04:59;;;;;;;0.00;0.00;;;16.30;82.00;;;;;;5022957;28;20053;-69
2022/08/21 05:07:29;;;;;;;0.00;0.00;;;16.30;82.10;;;;;;5021229;28;20125;-69
2022/08/21 05:09:55;;;;;;;0.00;0.00;;;16.40;82.10;;;;;;5023663;28;20044;-69
2022/08/21 05:12:21;;;;;;;0.00;0.00;;;16.30;82.30;;;;;;5031160;28;20041;-69
2022/08/21 05:14:47;;;;;;;0.00;0.00;;;16.30;82.00;;;;;;5028121;28;20053;-67
2022/08/21 05:17:13;;;;;;;0.00;0.00;;;16.40;82.40;;;;;;5026244;28;20100;-67
2022/08/21 05:19:39;;;;;;;0.00;0.00;;;16.30;82.40;;;;;;5013490;28;20124;-68
2022/08/21 05:22:05;;;;;;;0.00;0.00;;;16.40;82.40;;;;;;5011850;28;20049;-67
2022/08/21 05:24:31;;;;;;;0.00;0.00;;;16.30;82.40;;;;;;5023036;28;20658;-67
2022/08/21 05:26:57;;;;;;;0.00;0.00;;;16.40;82.70;;;;;;5019629;28;20428;-67
2022/08/21 05:29:23;;;;;;;0.00;0.00;;;16.40;82.50;;;;;;5012709;28;20046;-68
2022/08/21 05:31:48;;;;;;;0.00;0.00;;;16.40;82.80;;;;;;5019991;28;20406;-68
2022/08/21 05:34:19;;;;;;;0.00;0.00;;;16.50;83.40;;;;;;5014476;28;20514;-68
2022/08/21 05:36:44;;;;;;;0.00;0.00;;;16.50;83.30;;;;;;5017639;28;20099;-68
2022/08/21 05:39:10;;;;;;;0.00;0.00;;;16.50;83.30;;;;;;5009535;28;20049;-68
2022/08/21 05:41:36;;;;;;;0.00;0.00;;;16.60;83.50;;;;;;5010714;28;20053;-69
2022/08/21 05:44:02;;;;;;;0.00;0.00;;;16.60;83.70;;;;;;5010432;28;20057;-70
2022/08/21 05:46:27;;;;;;;0.00;0.00;;;16.60;83.50;;;;;;5010180;28;20042;-69
2022/08/21 05:48:53;;;;;;;0.00;0.00;;;16.60;83.30;;;;;;5017947;28;20049;-68
2022/08/21 05:51:18;;;;;;;0.75;0.60;;;16.60;83.90;;;;;;4998639;28;20069;-68
2022/08/21 05:53:45;;;;;;;0.00;0.00;;;16.70;84.00;;;;;;5009620;28;20137;-68
2022/08/21 05:56:11;;;;;;;0.00;0.00;;;16.80;83.70;;;;;;5010091;28;20057;-69
2022/08/21 05:58:37;;;;;;;0.00;0.00;;;16.80;83.40;;;;;;5010073;28;20069;-69
2022/08/21 06:01:04;;;;;;;0.00;0.00;;;16.90;83.70;;;;;;5025233;28;20494;-68
2022/08/21 06:03:32;;;;;;;0.00;0.00;;;16.90;83.80;;;;;;5003783;28;20085;-68
2022/08/21 06:05:58;;;;;;;0.00;0.00;;;17.00;83.90;;;;;;5010659;28;20034;-69
2022/08/21 06:08:25;;;;;;;0.00;0.00;;;17.10;84.10;;;;;;5009143;28;20065;-68
2022/08/21 06:10:52;;;;;;;0.15;0.10;;;17.10;84.30;;;;;;5010311;28;20092;-68
2022/08/21 06:13:19;;;;;;;0.03;0.03;;;17.20;84.70;;;;;;5010267;28;20060;-69
2022/08/21 06:15:45;;;;;;;0.00;0.00;;;17.30;84.80;;;;;;5010141;28;20072;-69
2022/08/21 06:18:11;;;;;;;0.00;0.00;;;17.40;85.00;;;;;;5008773;28;20506;-68
2022/08/21 06:20:37;;;;;;;0.00;0.00;;;17.40;85.20;;;;;;5010566;28;20054;-68
2022/08/21 06:23:03;;;;;;;0.00;0.00;;;17.50;84.80;;;;;;5009400;28;20054;-68
2022/08/21 06:25:29;;;;;;;0.10;0.10;;;17.60;84.70;;;;;;5010123;28;20046;-68
2022/08/21 06:28:08;;;;;;;0.00;0.00;;;17.60;84.90;;;;;;4990555;28;20054;-69
2022/08/21 06:30:35;;;;;;;0.00;0.00;;;17.70;84.40;;;;;;4989895;28;20128;-68
2022/08/21 06:33:02;;;;;;;0.00;0.00;;;17.80;84.50;;;;;;5005863;28;20057;-69
2022/08/21 06:35:28;;;;;;;0.00;0.00;;;17.90;84.90;;;;;;5009739;28;20054;-68
2022/08/21 06:37:55;;;;;;;0.00;0.00;;;17.90;84.70;;;;;;5008545;28;20058;-69
2022/08/21 06:40:21;;;;;;;0.10;0.10;;;18.00;85.20;;;;;;4999266;28;20046;-69
2022/08/21 06:42:47;;;;;;;0.10;0.10;;;18.00;84.00;;;;;;4990005;28;20128;-69
2022/08/21 06:45:13;;;;;;;0.00;0.00;;;18.10;84.90;;;;;;5012132;28;20046;-69
2022/08/21 06:47:39;;;;;;;0.00;0.00;;;18.10;85.30;;;;;;5025168;28;20038;-68
2022/08/21 06:50:07;;;;;;;0.08;0.08;;;18.20;85.40;;;;;;5008933;28;20499;-68
2022/08/21 06:52:33;;;;;;;0.00;0.00;;;18.20;85.50;;;;;;5007231;28;20053;-67
2022/08/21 06:54:59;;;;;;;0.00;0.00;;;18.30;85.30;;;;;;5008693;28;20133;-68
2022/08/21 06:57:25;;;;;;;0.00;0.00;;;18.30;85.00;;;;;;5012888;28;20133;-68
2022/08/21 06:59:51;;;;;;;0.00;0.00;;;18.30;84.80;;;;;;5006802;28;20069;-68
2022/08/21 07:02:17;;;;;;;0.00;0.00;;;18.40;84.70;;;;;;5009226;28;20042;-68
2022/08/21 07:04:43;;;;;;;0.00;0.00;;;18.50;85.20;;;;;;5008968;28;20054;-68
2022/08/21 07:07:09;;;;;;;0.73;0.47;;;18.50;85.10;;;;;;5007313;28;20107;-67
2022/08/21 07:09:34;;;;;;;0.00;0.00;;;18.50;84.90;;;;;;5006837;28;20045;-67
2022/08/21 07:12:03;;;;;;;0.00;0.00;;;18.60;85.20;;;;;;5023622;28;20583;-68
2022/08/21 07:14:29;;;;;;;0.25;0.25;;;18.70;85.20;;;;;;5008492;28;20056;-68
2022/08/21 07:16:54;;;;;;;0.00;0.00;;;18.80;85.00;;;;;;5007316;28;20049;-67
2022/08/21 07:19:20;;;;;;;0.00;0.00;;;18.80;84.90;;;;;;5008697;28;20650;-68
2022/08/21 07:21:46;;;;;;;0.00;0.00;;;18.90;84.60;;;;;;5007498;28;20087;-67
2022/08/21 07:24:12;;;;;;;0.60;0.38;;;19.00;84.20;;;;;;5008762;28;20046;-68
2022/08/21 07:26:37;;;;;;;0.00;0.00;;;19.10;84.00;;;;;;5008876;28;20053;-67
2022/08/21 07:29:04;;;;;;;0.00;0.00;;;19.30;83.60;;;;;;5002937;28;20050;-68
2022/08/21 07:31:30;;;;;;;0.00;0.00;;;19.40;84.10;;;;;;5008866;28;20467;-67
2022/08/21 07:33:55;;;;;;;0.10;0.10;;;19.40;83.80;;;;;;5009201;28;20671;-67
2022/08/21 07:36:21;;;;;;;0.00;0.00;;;19.50;83.50;;;;;;5024029;28;20048;-67
2022/08/21 07:38:47;;;;;;;0.00;0.00;;;19.60;83.50;;;;;;5008751;28;20059;-67
2022/08/21 07:41:17;;;;;;;0.00;0.00;;;19.80;83.00;;;;;;5008391;28;20053;-66
2022/08/21 07:43:43;;;;;;;0.00;0.00;;;19.80;82.40;;;;;;5009138;28;20049;-67
2022/08/21 07:46:09;;;;;;;0.00;0.00;;;19.80;82.60;;;;;;5005606;28;20117;-67
2022/08/21 07:48:35;;;;;;;0.00;0.00;;;19.90;82.40;;;;;;5007836;28;20073;-67
2022/08/21 07:51:05;;;;;;;0.00;0.00;;;19.90;82.10;;;;;;5012577;28;20050;-67
2022/08/21 07:53:31;;;;;;;0.00;0.00;;;20.00;82.10;;;;;;5008441;28;20057;-68
2022/08/21 07:55:57;;;;;;;1.40;1.30;;;20.00;82.00;;;;;;5006820;28;20407;-68
2022/08/21 07:58:23;;;;;;;0.03;0.03;;;20.10;81.40;;;;;;5003279;28;20534;-67
2022/08/21 08:00:49;;;;;;;0.00;0.00;;;20.20;82.10;;;;;;5008099;28;20058;-68
2022/08/21 08:03:15;;;;;;;0.00;0.00;;;20.30;83.00;;;;;;5007775;28;20042;-68
2022/08/21 08:05:40;;;;;;;0.00;0.00;;;20.30;82.80;;;;;;5008825;28;20038;-67
2022/08/21 08:08:06;;;;;;;0.00;0.00;;;20.40;82.40;;;;;;5007093;28;20125;-67
2022/08/21 08:10:32;;;;;;;0.00;0.00;;;20.50;82.20;;;;;;4997458;28;20053;-67
2022/08/21 08:12:58;;;;;;;0.00;0.00;;;20.50;82.10;;;;;;5008600;28;20183;-67
2022/08/21 08:15:26;;;;;;;2.50;1.45;;;20.60;81.80;;;;;;5007160;28;20050;-67
2022/08/21 08:17:52;;;;;;;0.00;0.00;;;20.70;81.40;;;;;;5006633;28;20050;-67
2022/08/21 08:20:19;;;;;;;0.00;0.00;;;20.70;81.10;;;;;;4998091;28;20451;-67
2022/08/21 08:22:45;;;;;;;0.00;0.00;;;20.70;81.60;;;;;;5007538;28;20046;-67
2022/08/21 08:25:13;;;;;;;0.00;0.00;;;20.80;81.60;;;;;;5005893;28;20511;-67
2022/08/21 08:27:39;;;;;;;0.00;0.00;;;20.80;81.50;;;;;;5002240;28;20045;-67
2022/08/21 08:30:07;;;;;;;4.15;2.63;;;20.80;81.10;;;;;;5008705;28;20441;-67
2022/08/21 08:32:33;;;;;;;0.52;0.52;;;20.80;81.10;;;;;;5011157;28;20487;-67
2022/08/21 08:34:59;;;;;;;0.00;0.00;;;20.80;80.80;;;;;;5012450;28;20045;-67
2022/08/21 08:37:25;;;;;;;0.00;0.00;;;20.80;80.40;;;;;;5012093;28;20054;-67
2022/08/21 08:39:50;;;;;;;0.00;0.00;;;20.80;80.30;;;;;;5012375;28;20062;-67
2022/08/21 08:42:27;;;;;;;0.40;0.40;;;20.80;79.40;;;;;;5008165;28;20393;-67
2022/08/21 08:45:06;;;;;;;0.00;0.00;;;20.80;79.20;;;;;;5002607;28;20442;-68
2022/08/21 08:47:34;;;;;;;0.00;0.00;;;20.70;78.70;;;;;;5010703;28;20046;-68
2022/08/21 08:50:23;;;;;;;0.00;0.00;;;20.60;78.70;;;;;;5027143;28;20046;-68
2022/08/21 08:52:53;;;;;;;0.00;0.00;;;20.70;79.40;;;;;;5010755;28;20189;-68
2022/08/21 08:55:41;;;;;;;0.00;0.00;;;20.80;78.40;;;;;;5011526;28;20564;-68
2022/08/21 08:58:10;;;;;;;0.00;0.00;;;20.80;77.80;;;;;;5011450;28;20049;-68
2022/08/21 09:00:38;;;;;;;0.00;0.00;;;20.90;77.40;;;;;;5011401;28;20073;-68
2022/08/21 09:03:04;;;;;;;0.00;0.00;;;21.10;77.40;;;;;;5011719;28;20042;-67
2022/08/21 09:06:01;;;;;;;0.00;0.00;;;21.20;78.00;;;;;;5011483;28;20045;-68
2022/08/21 09:08:49;;;;;;;0.00;0.00;;;21.30;77.60;;;;;;5002167;28;20046;-68
2022/08/21 09:11:40;;;;;;;0.00;0.00;;;21.50;76.60;;;;;;5001371;28;20065;-68
2022/08/21 09:14:30;;;;;;;0.00;0.00;;;21.60;76.70;;;;;;5010853;28;20524;-67
2022/08/21 09:17:21;;;;;;;0.00;0.00;;;21.70;75.70;;;;;;4991128;28;20050;-68
2022/08/21 09:20:20;;;;;;;0.00;0.00;;;21.70;75.80;;;;;;5008362;28;20495;-68
2022/08/21 09:23:12;;;;;;;0.00;0.00;;;21.70;76.00;;;;;;5009994;28;20823;-67
2022/08/21 09:26:05;;;;;;;0.00;0.00;;;21.80;75.70;;;;;;5011516;28;20406;-68
2022/08/21 09:28:34;;;;;;;0.10;0.10;;;21.70;74.80;;;;;;5009710;28;20048;-68
2022/08/21 09:31:02;;;;;;;0.00;0.00;;;21.60;74.90;;;;;;5000399;28;20041;-67
2022/08/21 09:33:28;;;;;;;0.00;0.00;;;21.40;74.90;;;;;;5008686;28;20046;-68
2022/08/21 09:35:58;;;;;;;0.03;0.03;;;21.40;75.70;;;;;;5010482;28;20048;-68
2022/08/21 09:38:31;;;;;;;0.00;0.00;;;21.50;74.90;;;;;;5008561;28;20050;-68
2022/08/21 09:41:04;;;;;;;0.00;0.00;;;21.60;75.10;;;;;;5009056;28;20042;-68
2022/08/21 09:43:31;;;;;;;0.20;0.20;;;21.70;74.20;;;;;;5006964;28;20577;-68
2022/08/21 09:46:12;;;;;;;0.08;0.08;;;21.80;74.80;;;;;;5010985;28;20041;-68
2022/08/21 09:48:49;;;;;;;0.00;0.00;;;21.80;73.30;;;;;;5010182;28;20046;-68
2022/08/21 09:51:19;;;;;;;0.03;0.03;;;21.80;72.70;;;;;;5007867;28;20057;-68
2022/08/21 09:53:49;;;;;;;0.00;0.00;;;21.80;72.70;;;;;;5001181;28;20128;-68
2022/08/21 09:59:19;;;;;;;0.00;0.00;;;21.50;71.30;;;;;;4995624;28;20046;-68
2022/08/21 10:01:48;;;;;;;0.00;0.00;;;21.40;70.80;;;;;;5005372;28;20045;-68
2022/08/21 10:04:15;;;;;;;0.00;0.00;;;21.30;71.40;;;;;;5008303;28;20042;-68
2022/08/21 10:06:41;;;;;;;0.00;0.00;;;21.30;71.80;;;;;;5006655;28;20034;-68
2022/08/21 10:09:10;;;;;;;0.00;0.00;;;21.20;71.20;;;;;;5009782;28;20033;-67
2022/08/21 10:11:39;;;;;;;0.00;0.00;;;21.10;71.00;;;;;;5009311;28;20070;-67
2022/08/21 10:14:24;;;;;;;0.00;0.00;;;21.20;71.00;;;;;;5008605;28;20433;-67
2022/08/21 10:17:04;;;;;;;0.00;0.00;;;21.40;70.80;;;;;;5007852;28;20049;-70
2022/08/21 10:19:59;;;;;;;0.00;0.00;;;21.60;70.70;;;;;;5008244;28;20760;-70
2022/08/21 10:22:38;;;;;;;0.00;0.00;;;21.70;69.40;;;;;;4997013;28;20038;-69
2022/08/21 10:25:22;;;;;;;0.00;0.00;;;21.90;67.60;;;;;;5028561;28;20073;-69
2022/08/21 10:28:20;;;;;;;0.00;0.00;;;22.00;68.40;;;;;;5010368;28;20061;-63
2022/08/21 10:30:48;;;;;;;0.00;0.00;;;22.10;66.00;;;;;;5009726;28;20503;-67
2022/08/21 10:33:31;;;;;;;0.00;0.00;;;22.20;65.10;;;;;;5009323;28;20068;-69
2022/08/21 10:36:08;;;;;;;0.63;0.63;;;22.20;62.60;;;;;;5010181;28;20046;-69
2022/08/21 10:38:37;;;;;;;0.00;0.00;;;22.40;65.10;;;;;;5007666;28;20058;-69
2022/08/21 10:41:10;;;;;;;0.00;0.00;;;22.50;63.40;;;;;;5009364;28;20060;-69
2022/08/21 10:44:12;;;;;;;0.00;0.00;;;22.60;60.50;;;;;;5006946;28;20081;-69
2022/08/21 10:47:03;;;;;;;0.13;0.13;;;22.50;62.10;;;;;;4990534;28;20042;-68
2022/08/21 10:49:48;;;;;;;0.00;0.00;;;22.30;63.50;;;;;;5006939;28;20448;-67
2022/08/21 10:52:34;;;;;;;0.00;0.00;;;22.10;64.00;;;;;;5008547;28;20054;-67
2022/08/21 10:55:06;;;;;;;0.00;0.00;;;21.90;65.00;;;;;;5008589;28;20052;-67
2022/08/21 10:57:54;;;;;;;0.00;0.00;;;21.70;64.40;;;;;;5008189;28;20042;-68
2022/08/21 11:00:22;;;;;;;0.40;0.38;;;21.60;65.70;;;;;;5009550;28;20503;-67
2022/08/21 11:03:07;;;;;;;0.00;0.00;;;21.60;65.80;;;;;;5010044;28;20527;-67
2022/08/21 11:05:40;;;;;;;0.00;0.00;;;21.60;65.00;;;;;;5009849;28;20061;-67
2022/08/21 11:08:17;;;;;;;0.00;0.00;;;21.60;66.10;;;;;;5024777;28;20084;-67
2022/08/21 11:10:47;;;;;;;0.00;0.00;;;21.70;66.30;;;;;;5008191;28;20046;-67
2022/08/21 11:13:25;;;;;;;0.00;0.00;;;21.70;66.00;;;;;;5009699;28;20042;-67
2022/08/21 11:16:10;;;;;;;0.00;0.00;;;21.90;66.40;;;;;;5009501;28;20052;-67
2022/08/21 11:18:44;;;;;;;0.00;0.00;;;22.00;65.10;;;;;;5009539;28;20164;-67
2022/08/21 11:21:29;;;;;;;0.00;0.00;;;22.20;63.10;;;;;;5009517;28;20112;-67
2022/08/21 11:24:04;;;;;;;0.43;0.30;;;22.30;61.40;;;;;;5009715;28;20061;-67
2022/08/21 11:26:41;;;;;;;0.00;0.00;;;22.40;60.70;;;;;;5009763;28;20100;-67
2022/08/21 11:29:31;;;;;;;0.00;0.00;;;22.30;61.70;;;;;;5008934;28;20488;-67
2022/08/21 11:32:17;;;;;;;0.00;0.00;;;22.50;62.00;;;;;;5009602;28;20046;-67
2022/08/21 11:35:08;;;;;;;0.00;0.00;;;22.60;61.00;;;;;;5009590;28;20050;-67
2022/08/21 11:37:53;;;;;;;0.00;0.00;;;22.60;61.60;;;;;;5009381;28;20069;-67
2022/08/21 11:40:26;;;;;;;0.00;0.00;;;22.60;60.00;;;;;;5008302;28;20062;-67
2022/08/21 11:43:00;;;;;;;0.00;0.00;;;22.50;59.30;;;;;;5001628;28;20042;-68
2022/08/21 11:45:42;;;;;;;0.00;0.00;;;22.60;61.50;;;;;;5009199;28;20046;-61
2022/08/21 11:48:14;;;;;;;0.00;0.00;;;22.70;61.20;;;;;;5004179;28;20455;-66
2022/08/21 11:50:42;;;;;;;0.40;0.40;;;22.70;59.90;;;;;;4989732;28;20492;-67
2022/08/21 11:53:19;;;;;;;0.00;0.00;;;22.60;61.20;;;;;;4995928;28;20095;-66
2022/08/21 11:55:47;;;;;;;0.00;0.00;;;22.50;61.40;;;;;;5009139;28;20053;-67
2022/08/21 11:58:20;;;;;;;0.00;0.00;;;22.50;61.00;;;;;;5009088;28;20478;-67
2022/08/21 12:00:53;;;;;;;0.00;0.00;;;22.50;60.20;;;;;;5009308;28;20057;-67
2022/08/21 12:03:27;;;;;;;0.00;0.00;;;22.40;60.90;;;;;;5008560;28;20040;-67
2022/08/21 12:05:57;;;;;;;0.10;0.10;;;22.40;60.70;;;;;;5008860;28;20050;-67
2022/08/21 12:08:38;;;;;;;0.00;0.00;;;22.20;61.20;;;;;;5011411;28;20042;-67
2022/08/21 12:11:24;;;;;;;0.00;0.00;;;22.30;61.50;;;;;;5013421;28;20041;-67
2022/08/21 12:14:06;;;;;;;0.00;0.00;;;22.30;61.80;;;;;;5013741;28;20084;-67
2022/08/21 12:16:44;;;;;;;0.00;0.00;;;22.20;61.50;;;;;;5013184;28;20042;-67
2022/08/21 12:19:20;;;;;;;0.00;0.00;;;22.20;62.00;;;;;;5011567;28;20499;-70
2022/08/21 12:22:02;;;;;;;0.00;0.00;;;22.30;62.00;;;;;;5012173;28;20135;-70
2022/08/21 12:24:42;;;;;;;0.35;0.35;;;22.40;62.30;;;;;;5001109;28;20045;-70
2022/08/21 12:27:17;;;;;;;0.00;0.00;;;22.50;60.10;;;;;;5012341;28;20041;-70
2022/08/21 12:29:48;;;;;;;0.20;0.20;;;22.60;60.00;;;;;;5008273;28;20108;-69
2022/08/21 12:32:14;;;;;;;0.00;0.00;;;22.70;60.50;;;;;;5010272;28;20057;-69
2022/08/21 12:34:54;;;;;;;0.00;0.00;;;22.80;61.10;;;;;;5011365;28;20041;-69
2022/08/21 12:37:34;;;;;;;0.00;0.00;;;22.80;58.90;;;;;;5011246;28;20526;-69
2022/08/21 12:40:02;;;;;;;0.00;0.00;;;22.90;58.10;;;;;;5008568;28;20137;-70
2022/08/21 12:42:38;;;;;;;0.00;0.00;;;23.00;58.50;;;;;;5036643;28;20052;-70
2022/08/21 12:45:27;;;;;;;0.00;0.00;;;23.00;57.00;;;;;;5006084;28;20458;-71
2022/08/21 12:48:10;;;;;;;0.00;0.00;;;23.10;56.90;;;;;;5004296;28;20101;-70
2022/08/21 12:50:43;;;;;;;0.00;0.00;;;23.00;58.20;;;;;;4994352;28;20046;-68
2022/08/21 12:53:19;;;;;;;0.00;0.00;;;23.00;58.50;;;;;;4992767;28;20046;-68
2022/08/21 12:55:44;;;;;;;0.85;0.08;;;23.00;57.30;;;;;;5010347;28;20050;-69
2022/08/21 12:58:24;;;;;;;0.00;0.00;;;22.80;58.50;;;;;;5011581;28;20112;-69
2022/08/21 13:01:06;;;;;;;0.00;0.00;;;22.80;58.20;;;;;;5010068;28;20132;-70
2022/08/21 13:03:35;;;;;;;0.00;0.00;;;22.80;58.70;;;;;;5005029;28;20044;-69
2022/08/21 13:06:03;;;;;;;0.00;0.00;;;22.80;58.00;;;;;;5020180;28;20049;-70